createdAt,value
2023-04-29T00:02:58.608Z,5.20
2023-04-29T00:06:02.134Z,5.10
2023-04-29T00:09:04.874Z,5.18
2023-04-29T00:12:07.703Z,5.00
2023-04-29T00:15:10.921Z,4.97
2023-04-29T00:18:14.467Z,6.50
2023-04-29T00:21:17.285Z,6.78
2023-04-29T00:24:20.435Z,11.02
2023-04-29T00:27:23.068Z,11.43
2023-04-29T00:30:25.961Z,13.10
2023-04-29T00:33:28.798Z,10.02
2023-04-29T00:36:32.759Z,9.52
2023-04-29T00:39:35.464Z,9.85
2023-04-29T00:42:40.516Z,6.60
2023-04-29T00:45:43.948Z,7.85
2023-04-29T00:48:46.687Z,8.10
2023-04-29T00:51:50.362Z,7.53
2023-04-29T00:54:53.015Z,8.40
2023-04-29T00:57:56.419Z,6.38
2023-04-29T01:01:00.810Z,5.88
2023-04-29T01:04:05.715Z,4.78
2023-04-29T01:07:18.477Z,5.25
2023-04-29T01:10:30.129Z,4.20
2023-04-29T01:13:40.440Z,3.67
2023-04-29T01:16:49.556Z,5.40
2023-04-29T01:19:57.977Z,3.63
2023-04-29T01:23:01.555Z,5.22
2023-04-29T01:26:06.221Z,5.43
2023-04-29T01:29:51.631Z,4.60
2023-04-29T01:33:04.918Z,3.50
2023-04-29T01:36:46.996Z,5.50
2023-04-29T01:40:17.566Z,4.57
2023-04-29T01:43:34.516Z,4.30
2023-04-29T01:46:54.248Z,4.25
2023-04-29T01:50:00.380Z,5.53
2023-04-29T01:53:03.190Z,5.78
2023-04-29T01:56:07.388Z,4.30
2023-04-29T02:02:42.653Z,7.53
2023-04-29T02:05:59.884Z,7.35
2023-04-29T02:09:02.955Z,7.13
2023-04-29T02:12:08.069Z,6.70
2023-04-29T02:15:10.902Z,6.75
2023-04-29T02:18:13.651Z,6.10
2023-04-29T02:21:16.734Z,6.70
2023-04-29T02:24:19.649Z,7.22
2023-04-29T02:27:24.056Z,5.43
2023-04-29T02:30:26.911Z,5.40
2023-04-29T02:33:30.336Z,5.53
2023-04-29T02:36:33.005Z,5.97
2023-04-29T02:39:35.949Z,4.88
2023-04-29T02:42:38.899Z,4.85
2023-04-29T02:45:42.871Z,5.65
2023-04-29T02:51:50.276Z,4.95
2023-04-29T02:54:53.685Z,5.93
2023-04-29T02:57:56.431Z,4.40
2023-04-29T03:00:59.284Z,3.83
2023-04-29T03:04:02.412Z,5.63
2023-04-29T03:07:05.740Z,4.28
2023-04-29T03:10:09.349Z,3.88
2023-04-29T03:13:15.803Z,4.78
2023-04-29T03:16:20.003Z,4.10
2023-04-29T03:19:22.917Z,3.83
2023-04-29T03:22:27.034Z,3.95
2023-04-29T03:25:30.517Z,4.13
2023-04-29T03:28:36.465Z,4.90
2023-04-29T03:31:39.426Z,7.60
2023-04-29T03:34:42.438Z,6.55
2023-04-29T03:37:56.398Z,8.27
2023-04-29T03:41:04.689Z,8.73
2023-04-29T03:44:07.828Z,7.43
2023-04-29T03:47:10.601Z,8.13
2023-04-29T03:50:13.596Z,5.65
2023-04-29T03:53:17.658Z,6.85
2023-04-29T03:56:20.911Z,9.23
2023-04-29T03:59:23.682Z,9.02
2023-04-29T04:02:28.114Z,7.72
2023-04-29T04:05:31.564Z,10.60
2023-04-29T04:08:41.765Z,10.13
2023-04-29T04:11:51.177Z,7.28
2023-04-29T04:14:55.859Z,6.28
2023-04-29T04:17:58.629Z,5.80
2023-04-29T04:21:06.852Z,5.85
2023-04-29T04:24:12.081Z,5.00
2023-04-29T04:27:15.205Z,7.00
2023-04-29T04:33:26.981Z,8.95
2023-04-29T04:36:29.817Z,10.07
2023-04-29T04:39:33.175Z,9.60
2023-04-29T04:42:36.525Z,8.63
2023-04-29T04:45:39.394Z,6.90
2023-04-29T04:48:43.506Z,6.93
2023-04-29T04:54:52.160Z,5.90
2023-04-29T04:57:59.647Z,6.85
2023-04-29T05:01:03.151Z,8.07
2023-04-29T05:04:06.261Z,7.28
2023-04-29T05:07:09.529Z,7.07
2023-04-29T05:10:33.739Z,7.90
2023-04-29T05:13:37.872Z,9.20
2023-04-29T05:16:40.930Z,9.05
2023-04-29T05:19:44.256Z,9.15
2023-04-29T05:22:47.832Z,6.68
2023-04-29T05:25:51.185Z,6.68
2023-04-29T05:28:54.338Z,5.72
2023-04-29T05:31:59.689Z,5.20
2023-04-29T05:35:03.725Z,5.75
2023-04-29T05:38:08.128Z,5.75
2023-04-29T05:41:17.072Z,5.95
2023-04-29T05:44:23.479Z,6.13
2023-04-29T05:47:26.494Z,4.93
2023-04-29T05:50:29.412Z,4.75
2023-04-29T05:53:33.612Z,5.80
2023-04-29T05:56:36.472Z,4.45
2023-04-29T05:59:39.591Z,5.32
2023-04-29T06:02:51.049Z,4.68
2023-04-29T06:06:01.451Z,5.18
2023-04-29T06:09:27.874Z,6.13
2023-04-29T06:12:35.072Z,5.43
2023-04-29T06:15:37.980Z,4.90
2023-04-29T06:18:41.828Z,4.80
2023-04-29T06:21:44.721Z,4.63
2023-04-29T06:24:50.020Z,5.80
2023-04-29T06:28:08.309Z,5.97
2023-04-29T06:31:11.254Z,5.85
2023-04-29T06:34:14.353Z,4.97
2023-04-29T06:37:37.993Z,4.30
2023-04-29T06:41:01.381Z,5.35
2023-04-29T06:44:36.921Z,5.50
2023-04-29T06:47:59.902Z,5.28
2023-04-29T06:51:14.437Z,6.03
2023-04-29T06:54:17.340Z,5.20
2023-04-29T06:57:21.269Z,5.32
2023-04-29T07:00:24.212Z,5.38
2023-04-29T07:03:31.046Z,5.45
2023-04-29T07:06:34.051Z,5.18
2023-04-29T07:09:37.235Z,5.68
2023-04-29T07:12:40.485Z,5.55
2023-04-29T07:15:43.516Z,5.65
2023-04-29T07:18:46.399Z,5.47
2023-04-29T07:21:49.300Z,5.85
2023-04-29T07:24:56.076Z,6.38
2023-04-29T07:27:58.960Z,6.40
2023-04-29T07:31:01.848Z,6.15
2023-04-29T07:34:04.978Z,11.25
2023-04-29T07:37:07.856Z,6.25
2023-04-29T07:40:10.910Z,5.93
2023-04-29T07:43:14.372Z,5.47
2023-04-29T07:46:18.576Z,4.63
2023-04-29T07:49:21.337Z,6.53
2023-04-29T07:52:24.156Z,5.57
2023-04-29T07:55:27.702Z,5.15
2023-04-29T07:58:32.667Z,5.10
2023-04-29T08:01:35.787Z,5.70
2023-04-29T08:04:42.848Z,5.10
2023-04-29T08:07:52.084Z,5.45
2023-04-29T08:10:54.938Z,5.15
2023-04-29T08:14:00.569Z,5.18
2023-04-29T08:17:06.807Z,5.72
2023-04-29T08:20:09.969Z,5.68
2023-04-29T08:23:13.105Z,5.25
2023-04-29T08:26:16.067Z,4.93
2023-04-29T08:29:18.839Z,5.97
2023-04-29T08:32:21.534Z,5.60
2023-04-29T08:35:24.348Z,6.40
2023-04-29T08:38:27.543Z,5.90
2023-04-29T08:41:33.002Z,5.47
2023-04-29T08:44:37.138Z,5.45
2023-04-29T08:47:40.402Z,5.00
2023-04-29T08:50:43.683Z,5.47
2023-04-29T08:53:46.785Z,5.07
2023-04-29T08:56:49.591Z,5.03
2023-04-29T08:59:52.483Z,6.28
2023-04-29T09:02:57.075Z,6.43
2023-04-29T09:06:01.542Z,6.40
2023-04-29T09:09:04.712Z,5.50
2023-04-29T09:12:09.673Z,6.05
2023-04-29T09:15:12.488Z,6.15
2023-04-29T09:18:48.218Z,6.03
2023-04-29T09:21:57.492Z,6.88
2023-04-29T09:25:13.190Z,6.32
2023-04-29T09:28:17.254Z,6.45
2023-04-29T09:31:28.294Z,6.20
2023-04-29T09:34:33.086Z,6.18
2023-04-29T09:37:35.879Z,5.82
2023-04-29T09:40:54.483Z,6.50
2023-04-29T09:44:08.964Z,5.95
2023-04-29T09:47:13.575Z,5.82
2023-04-29T09:50:18.433Z,6.07
2023-04-29T09:53:30.245Z,6.18
2023-04-29T09:56:49.903Z,5.38
2023-04-29T09:59:52.740Z,5.45
2023-04-29T10:02:59.488Z,5.07
2023-04-29T10:06:06.835Z,5.63
2023-04-29T10:09:15.924Z,6.60
2023-04-29T10:12:20.703Z,5.97
2023-04-29T10:15:37.921Z,6.70
2023-04-29T10:18:42.590Z,6.15
2023-04-29T10:21:47.186Z,6.22
2023-04-29T10:24:52.796Z,6.07
2023-04-29T10:27:56.406Z,5.30
2023-04-29T10:31:06.154Z,6.47
2023-04-29T10:34:09.055Z,5.35
2023-04-29T10:37:12.785Z,5.82
2023-04-29T10:40:31.098Z,5.95
2023-04-29T10:43:34.030Z,5.90
2023-04-29T10:46:38.338Z,5.50
2023-04-29T10:49:41.685Z,6.03
2023-04-29T10:52:58.229Z,5.57
2023-04-29T10:56:06.697Z,5.50
2023-04-29T10:59:18.857Z,5.00
2023-04-29T11:02:21.966Z,5.22
2023-04-29T11:05:32.625Z,5.05
2023-04-29T11:08:41.505Z,4.60
2023-04-29T11:11:53.155Z,5.82
2023-04-29T11:15:05.214Z,4.47
2023-04-29T11:18:16.420Z,5.60
2023-04-29T11:21:21.091Z,4.75
2023-04-29T11:24:31.535Z,5.78
2023-04-29T11:27:43.057Z,6.10
2023-04-29T11:30:47.234Z,6.13
2023-04-29T11:33:50.335Z,6.05
2023-04-29T11:36:54.173Z,5.90
2023-04-29T11:40:03.875Z,5.28
2023-04-29T11:43:19.677Z,6.45
2023-04-29T11:46:22.723Z,6.75
2023-04-29T11:49:31.934Z,6.93
2023-04-29T11:52:40.742Z,5.95
2023-04-29T11:55:44.072Z,7.38
2023-04-29T11:58:47.462Z,7.22
2023-04-29T12:01:51.344Z,6.50
2023-04-29T12:04:59.183Z,6.05
2023-04-29T12:08:02.390Z,5.85
2023-04-29T12:11:08.001Z,5.25
2023-04-29T12:14:11.666Z,5.43
2023-04-29T12:17:18.629Z,4.63
2023-04-29T12:20:24.714Z,6.63
2023-04-29T12:23:28.135Z,3.97
2023-04-29T12:26:36.356Z,4.22
2023-04-29T12:29:43.211Z,5.60
2023-04-29T12:32:50.098Z,6.13
2023-04-29T12:35:59.980Z,7.07
2023-04-29T12:39:13.753Z,7.40
2023-04-29T12:42:20.000Z,7.13
2023-04-29T12:45:34.679Z,5.97
2023-04-29T12:48:45.037Z,5.53
2023-04-29T12:51:54.333Z,5.15
2023-04-29T12:54:58.695Z,4.88
2023-04-29T12:58:06.261Z,6.25
2023-04-29T13:01:18.880Z,6.00
2023-04-29T13:04:32.823Z,6.38
2023-04-29T13:07:39.714Z,6.20
2023-04-29T13:10:53.692Z,7.50
2023-04-29T13:17:04.830Z,6.23
2023-04-29T13:20:15.252Z,5.70
2023-04-29T13:23:26.289Z,6.07
2023-04-29T13:26:36.672Z,5.50
2023-04-29T13:29:39.723Z,6.25
2023-04-29T13:32:49.787Z,5.35
2023-04-29T13:36:00.175Z,5.47
2023-04-29T13:39:11.426Z,6.03
2023-04-29T13:42:18.555Z,5.75
2023-04-29T13:45:21.705Z,5.00
2023-04-29T13:49:10.236Z,5.25
2023-04-29T14:02:14.957Z,4.97
2023-04-29T14:04:49.225Z,5.47
2023-04-29T14:07:54.969Z,5.10
2023-04-29T14:10:58.953Z,5.20
2023-04-29T14:14:06.217Z,4.07
2023-04-29T14:17:10.069Z,5.90
2023-04-29T14:20:16.761Z,3.85
2023-04-29T14:23:20.018Z,3.90
2023-04-29T14:26:28.281Z,4.22
2023-04-29T14:29:31.885Z,4.18
2023-04-29T14:32:34.780Z,4.70
2023-04-29T14:35:37.685Z,4.10
2023-04-29T14:38:40.820Z,3.88
2023-04-29T14:41:43.631Z,3.55
2023-04-29T14:44:46.399Z,4.32
2023-04-29T14:47:49.282Z,3.70
2023-04-29T14:50:52.172Z,3.92
2023-04-29T14:53:54.924Z,3.25
2023-04-29T14:56:57.822Z,4.40
2023-04-29T15:00:00.681Z,4.32
2023-04-29T15:03:05.430Z,4.53
2023-04-29T15:06:08.572Z,4.28
2023-04-29T15:09:11.275Z,3.90
2023-04-29T15:12:16.993Z,3.78
2023-04-29T15:15:20.467Z,3.00
2023-04-29T15:18:26.802Z,3.78
2023-04-29T15:21:30.559Z,2.55
2023-04-29T15:24:33.581Z,3.80
2023-04-29T15:27:37.383Z,3.33
2023-04-29T15:30:40.135Z,4.40
2023-04-29T15:33:43.305Z,4.20
2023-04-29T15:36:46.557Z,4.28
2023-04-29T15:39:49.266Z,3.85
2023-04-29T15:42:52.293Z,4.03
2023-04-29T15:45:56.423Z,5.63
2023-04-29T15:48:59.421Z,4.07
2023-04-29T15:52:02.652Z,5.35
2023-04-29T15:55:06.711Z,4.95
2023-04-29T15:58:09.461Z,4.45
2023-04-29T16:01:12.545Z,6.53
2023-04-29T16:04:15.318Z,5.07
2023-04-29T16:07:18.770Z,6.10
2023-04-29T16:10:21.992Z,6.32
2023-04-29T16:13:24.994Z,5.35
2023-04-29T16:16:28.162Z,5.50
2023-04-29T16:19:31.015Z,4.72
2023-04-29T16:22:36.273Z,5.57
2023-04-29T16:25:40.879Z,5.45
2023-04-29T16:28:43.778Z,5.55
2023-04-29T16:31:47.212Z,5.68
2023-04-29T16:34:50.477Z,4.50
2023-04-29T16:37:53.760Z,5.13
2023-04-29T16:40:56.790Z,5.45
2023-04-29T16:43:59.904Z,5.75
2023-04-29T16:47:03.484Z,4.15
2023-04-29T16:50:08.755Z,4.93
2023-04-29T16:53:15.833Z,5.63
2023-04-29T16:56:19.443Z,6.30
2023-04-29T16:59:22.460Z,5.93
2023-04-29T17:02:25.880Z,7.35
2023-04-29T17:05:29.138Z,7.90
2023-04-29T17:08:32.396Z,7.43
2023-04-29T17:11:35.313Z,6.82
2023-04-29T17:14:40.251Z,8.32
2023-04-29T17:17:43.500Z,7.78
2023-04-29T17:20:48.115Z,8.70
2023-04-29T17:23:53.777Z,10.37
2023-04-29T17:26:56.821Z,11.25
2023-04-29T17:29:59.980Z,13.75
2023-04-29T17:33:09.206Z,11.45
2023-04-29T17:36:15.153Z,6.32
2023-04-29T17:39:18.110Z,5.35
2023-04-29T17:42:24.276Z,5.35
2023-04-29T17:45:27.151Z,5.80
2023-04-29T17:48:30.311Z,5.13
2023-04-29T17:51:36.110Z,4.25
2023-04-29T17:54:40.466Z,13.85
2023-04-29T17:57:43.400Z,15.05
2023-04-29T18:00:46.742Z,9.70
2023-04-29T18:03:51.779Z,8.98
2023-04-29T18:06:54.702Z,5.05
2023-04-29T18:09:57.923Z,4.50
2023-04-29T18:13:03.812Z,4.78
2023-04-29T18:16:08.262Z,4.88
2023-04-29T18:19:11.465Z,5.43
2023-04-29T18:22:14.352Z,5.80
2023-04-29T18:25:17.668Z,4.65
2023-04-29T18:28:25.397Z,5.35
2023-04-29T18:31:30.911Z,7.20
2023-04-29T18:34:33.838Z,6.90
2023-04-29T18:37:36.684Z,12.98
2023-04-29T18:40:39.812Z,10.10
2023-04-29T18:43:42.567Z,4.60
2023-04-29T18:46:45.522Z,4.60
2023-04-29T18:49:48.679Z,5.05
2023-04-29T18:52:51.488Z,4.93
2023-04-29T18:55:54.580Z,3.95
2023-04-29T18:58:57.983Z,4.30
2023-04-29T19:02:01.316Z,3.58
2023-04-29T19:05:07.053Z,5.30
2023-04-29T19:08:10.032Z,2.65
2023-04-29T19:11:13.017Z,5.20
2023-04-29T19:14:15.883Z,4.18
2023-04-29T19:17:18.766Z,4.38
2023-04-29T19:20:21.660Z,5.20
2023-04-29T19:23:24.622Z,4.65
2023-04-29T19:26:27.599Z,4.75
2023-04-29T19:29:30.329Z,16.05
2023-04-29T19:32:33.288Z,7.40
2023-04-29T19:35:36.170Z,4.63
2023-04-29T19:38:39.077Z,15.20
2023-04-29T19:41:42.085Z,5.00
2023-04-29T19:44:45.205Z,4.60
2023-04-29T19:47:50.311Z,4.43
2023-04-29T19:50:53.408Z,4.20
2023-04-29T19:53:56.976Z,3.88
2023-04-29T19:57:00.270Z,3.88
2023-04-29T20:00:04.585Z,4.70
2023-04-29T20:03:09.048Z,3.63
2023-04-29T20:06:12.110Z,5.07
2023-04-29T20:09:16.010Z,4.30
2023-04-29T20:12:18.983Z,4.05
2023-04-29T20:15:22.025Z,3.22
2023-04-29T20:18:24.957Z,3.78
2023-04-29T20:21:28.132Z,3.13
2023-04-29T20:24:31.075Z,3.05
2023-04-29T20:27:34.052Z,3.72
2023-04-29T20:30:37.204Z,4.43
2023-04-29T20:33:40.015Z,3.55
2023-04-29T20:36:42.959Z,11.05
2023-04-29T20:39:46.965Z,19.48
2023-04-29T20:42:50.051Z,12.65
2023-04-29T20:45:53.147Z,6.57
2023-04-29T20:48:56.026Z,5.35
2023-04-29T20:52:00.280Z,4.40
2023-04-29T20:55:03.407Z,17.42
2023-04-29T20:58:06.361Z,8.20
2023-04-29T21:01:09.465Z,4.85
2023-04-29T21:04:12.321Z,5.57
2023-04-29T21:07:15.196Z,12.73
2023-04-29T21:10:18.309Z,10.02
2023-04-29T21:13:21.102Z,6.80
2023-04-29T21:16:23.864Z,12.05
2023-04-29T21:19:26.790Z,13.80
2023-04-29T21:22:29.599Z,6.00
2023-04-29T21:25:32.293Z,8.15
2023-04-29T21:28:35.098Z,11.45
2023-04-29T21:31:37.922Z,6.57
2023-04-29T21:34:41.027Z,18.80
2023-04-29T21:37:46.096Z,10.90
2023-04-29T21:40:48.973Z,13.98
2023-04-29T21:43:53.417Z,12.43
2023-04-29T21:46:57.132Z,22.10
2023-04-29T21:50:01.005Z,25.92
2023-04-29T21:53:03.884Z,37.28
2023-04-29T21:56:07.262Z,57.53
2023-04-29T21:59:09.967Z,30.00
2023-04-29T22:02:22.353Z,20.55
2023-04-29T22:05:25.548Z,9.18
2023-04-29T22:08:28.376Z,6.75
2023-04-29T22:11:31.401Z,6.50
2023-04-29T22:14:34.226Z,9.20
2023-04-29T22:17:37.065Z,6.95
2023-04-29T22:20:39.868Z,6.00
2023-04-29T22:23:43.128Z,6.15
2023-04-29T22:26:46.802Z,16.50
2023-04-29T22:29:50.051Z,14.52
2023-04-29T22:32:52.841Z,10.80
2023-04-29T22:35:55.772Z,9.13
2023-04-29T22:38:59.098Z,9.25
2023-04-29T22:42:04.962Z,12.85
2023-04-29T22:45:08.556Z,12.70
2023-04-29T22:48:11.271Z,8.48
2023-04-29T22:51:14.107Z,8.77
2023-04-29T22:54:16.928Z,8.30
2023-04-29T22:57:19.755Z,8.70
2023-04-29T23:00:22.687Z,7.88
2023-04-29T23:03:25.837Z,9.30
2023-04-29T23:06:29.002Z,8.90
2023-04-29T23:09:32.008Z,8.60
2023-04-29T23:12:35.033Z,9.55
2023-04-29T23:15:37.961Z,12.13
2023-04-29T23:18:41.070Z,12.80
2023-04-29T23:21:44.131Z,10.10
2023-04-29T23:24:47.012Z,10.30
2023-04-29T23:27:49.804Z,8.80
2023-04-29T23:30:52.693Z,9.98
2023-04-29T23:33:55.691Z,9.15
2023-04-29T23:36:58.840Z,9.23
2023-04-29T23:40:01.701Z,9.98
2023-04-29T23:43:04.685Z,9.05
2023-04-29T23:46:07.459Z,11.02
2023-04-29T23:49:10.932Z,9.18
2023-04-29T23:52:13.870Z,9.90
2023-04-29T23:55:16.646Z,9.32
2023-04-29T23:58:19.567Z,9.60
